Time;durP1;ratioP1;P1;durP2;ratioP2;P2;SDS_P1;SDS_P2;PMS_P1;PMS_P2;Temp;Humidity;BMP_temperature;BMP_pressure;BME280_temperature;BME280_humidity;BME280_pressure;Samples;Min_cycle;Max_cycle;Signal;HPM_P1;HPM_P2
2023/01/22 00:01:11;;;;;;;6.13;4.38;;;;;;;13.06;75.16;101760.75;4955925;28;20030;-86
2023/01/22 00:03:38;;;;;;;7.07;4.57;;;;;;;12.97;74.75;101745.38;4955982;28;20508;-87
2023/01/22 00:06:04;;;;;;;6.88;4.72;;;;;;;12.91;74.69;101750.25;4973981;28;20027;-87
2023/01/22 00:08:30;;;;;;;5.30;4.25;;;;;;;13.24;74.94;101802.09;4957344;28;20094;-88
2023/01/22 00:10:56;;;;;;;7.50;4.65;;;;;;;13.03;74.65;101761.47;4957205;28;20461;-87
2023/01/22 00:13:23;;;;;;;7.53;4.40;;;;;;;13.20;74.62;101801.81;4939993;28;20525;-89
2023/01/22 00:15:49;;;;;;;7.28;4.40;;;;;;;12.94;74.67;101746.09;4933194;29;20042;-88
2023/01/22 00:18:14;;;;;;;6.57;4.18;;;;;;;12.90;74.84;101749.34;4934005;29;20462;-87
2023/01/22 00:20:55;;;;;;;6.60;4.43;;;;;;;12.63;74.77;101691.81;4934985;29;20059;-90
2023/01/22 00:23:22;;;;;;;6.70;4.35;;;;;;;13.23;74.68;101795.06;4931419;29;20039;-89
2023/01/22 00:25:47;;;;;;;5.28;4.10;;;;;;;13.21;74.37;101793.16;4919277;29;20147;-90
2023/01/22 00:28:15;;;;;;;6.35;4.60;;;;;;;13.13;74.91;101776.06;4935191;29;20115;-89
2023/01/22 00:30:41;;;;;;;6.78;4.20;;;;;;;12.83;74.84;101740.22;4927768;29;20463;-89
2023/01/22 00:33:08;;;;;;;6.18;4.10;;;;;;;13.13;74.73;101792.69;4918594;29;20075;-89
2023/01/22 00:35:34;;;;;;;7.25;4.53;;;;;;;13.27;74.63;101808.34;4931073;29;20059;-89
2023/01/22 00:37:59;;;;;;;7.13;4.00;;;;;;;13.06;74.81;101777.41;4913200;29;20032;-89
2023/01/22 00:40:26;;;;;;;8.55;4.30;;;;;;;13.24;74.81;101806.44;4932885;29;20043;-89
2023/01/22 00:43:02;;;;;;;7.85;4.30;;;;;;;12.83;74.61;101739.31;4915521;29;20031;-89
2023/01/22 00:45:29;;;;;;;6.65;4.43;;;;;;;13.13;74.63;101781.31;4949937;28;20107;-89
2023/01/22 00:47:56;;;;;;;6.85;4.30;;;;;;;12.84;74.29;101728.91;4932821;29;20047;-89
2023/01/22 00:50:23;;;;;;;7.85;4.57;;;;;;;13.12;74.45;101767.28;4929589;29;20523;-88
2023/01/22 00:52:49;;;;;;;7.20;4.35;;;;;;;12.80;74.63;101724.28;4930635;29;20034;-89
2023/01/22 00:55:15;;;;;;;6.82;4.13;;;;;;;13.11;74.69;101769.81;4932345;29;20421;-89
2023/01/22 00:57:40;;;;;;;6.78;4.55;;;;;;;12.94;74.60;101756.59;4916217;29;20035;-88
2023/01/22 01:00:07;;;;;;;7.75;4.32;;;;;;;12.91;74.42;101730.22;4947025;28;20482;-89
2023/01/22 01:05:26;;;;;;;6.43;3.80;;;;;;;12.91;74.54;101734.53;4925048;29;20099;-90
2023/01/22 01:07:52;;;;;;;6.47;4.40;;;;;;;12.87;74.63;101738.69;4913380;29;20048;-89
2023/01/22 01:10:40;;;;;;;6.47;4.35;;;;;;;13.06;74.31;101774.78;4936726;28;20034;-88
2023/01/22 01:13:10;;;;;;;8.02;4.40;;;;;;;13.23;74.31;101809.91;4950166;28;20047;-90
2023/01/22 01:15:36;;;;;;;5.38;3.67;;;;;;;13.03;74.44;101779.84;4949026;28;20122;-89
2023/01/22 01:18:02;;;;;;;5.10;3.60;;;;;;;12.96;74.25;101754.97;4951772;28;20038;-89
2023/01/22 01:20:27;;;;;;;6.53;4.32;;;;;;;12.96;74.57;101767.19;4934087;29;20117;-88
2023/01/22 01:22:53;;;;;;;6.45;4.30;;;;;;;13.11;74.43;101786.44;4967659;28;20047;-90
2023/01/22 01:25:21;;;;;;;7.03;4.28;;;;;;;13.22;74.42;101808.97;4951237;28;20466;-90
2023/01/22 01:27:47;;;;;;;8.20;4.20;;;;;;;13.19;74.61;101794.78;4951483;28;20023;-90
2023/01/22 01:30:13;;;;;;;6.45;4.40;;;;;;;13.25;74.53;101808.28;4951622;28;20485;-91
2023/01/22 01:32:45;;;;;;;5.63;3.67;;;;;;;13.19;74.53;101797.41;4967287;28;20027;-88
2023/01/22 01:35:11;;;;;;;5.90;3.80;;;;;;;13.11;74.20;101789.06;4928281;29;20074;-90
2023/01/22 01:37:40;;;;;;;5.90;3.90;;;;;;;13.02;74.26;101767.56;4958513;28;20066;-91
2023/01/22 01:40:06;;;;;;;5.68;3.72;;;;;;;13.01;74.30;101776.22;4935574;29;20038;-89
2023/01/22 01:42:33;;;;;;;;;;;;;;;13.24;74.50;101809.97;4949229;28;20053;-89
2023/01/22 01:45:23;;;;;;;7.13;3.93;;;;;;;13.21;74.46;101806.28;4965413;28;19914;-89
2023/01/22 01:48:01;;;;;;;6.95;4.03;;;;;;;13.12;74.22;101785.66;4943555;28;20282;-90
2023/01/22 01:50:28;;;;;;;6.35;3.80;;;;;;;13.24;74.21;101799.47;4966156;28;20031;-88
2023/01/22 01:52:55;;;;;;;6.15;3.50;;;;;;;13.19;74.51;101797.41;4952214;28;20501;-89
2023/01/22 01:55:28;;;;;;;4.63;3.63;;;;;;;13.09;74.42;101784.56;4968221;28;20031;-89
2023/01/22 01:57:59;;;;;;;5.43;3.75;;;;;;;13.17;74.69;101797.31;4951557;28;20031;-90
2023/01/22 02:00:26;;;;;;;6.13;3.67;;;;;;;13.12;74.28;101780.41;4944996;28;20512;-89
2023/01/22 02:02:52;;;;;;;6.60;3.60;;;;;;;12.99;74.45;101768.25;4968183;28;20122;-89
2023/01/22 02:05:20;;;;;;;5.00;3.60;;;;;;;12.79;74.72;101738.22;4948594;28;20110;-89
2023/01/22 02:07:47;;;;;;;6.32;4.10;;;;;;;12.84;74.49;101759.47;4951790;28;20122;-89
2023/01/22 02:10:13;;;;;;;6.50;3.90;;;;;;;13.00;74.56;101772.69;4952365;28;20038;-89
2023/01/22 02:12:39;;;;;;;5.53;3.65;;;;;;;13.22;74.47;101808.06;4951858;28;20482;-89
2023/01/22 02:15:05;;;;;;;5.63;3.67;;;;;;;13.11;74.21;101796.03;4938711;28;20118;-89
2023/01/22 02:17:32;;;;;;;6.20;3.72;;;;;;;12.82;74.43;101756.75;4955444;28;20035;-89
2023/01/22 02:19:58;;;;;;;6.53;3.65;;;;;;;13.18;74.36;101817.47;4934789;28;20070;-89
2023/01/22 02:22:30;;;;;;;6.47;4.03;;;;;;;13.14;74.21;101811.94;4955358;28;20529;-89
2023/01/22 02:24:56;;;;;;;7.05;4.10;;;;;;;13.17;74.33;101818.28;4955360;28;20130;-90
2023/01/22 02:27:21;;;;;;;4.78;3.58;;;;;;;13.21;74.27;101815.03;4939360;28;20113;-89
2023/01/22 02:29:47;;;;;;;6.97;3.78;;;;;;;12.89;74.28;101762.34;4946256;28;20034;-88
2023/01/22 02:32:14;;;;;;;7.28;4.05;;;;;;;13.03;74.65;101791.22;4971393;28;20039;-91
2023/01/22 02:34:39;;;;;;;6.20;3.63;;;;;;;12.91;74.41;101760.72;4955355;28;20066;-90
2023/01/22 02:37:06;;;;;;;6.28;3.83;;;;;;;13.14;74.34;101799.72;4939606;28;20074;-89
2023/01/22 02:39:35;;;;;;;4.88;3.75;;;;;;;13.01;74.36;101784.97;4954912;28;20037;-90
2023/01/22 02:42:01;;;;;;;5.35;3.70;;;;;;;13.14;74.25;101818.09;4954585;28;20178;-90
2023/01/22 02:44:27;;;;;;;5.10;3.63;;;;;;;13.04;74.46;101802.63;4949033;28;20074;-90
2023/01/22 02:46:57;;;;;;;5.03;3.55;;;;;;;13.18;74.25;101821.81;4955229;28;20058;-90
2023/01/22 02:49:24;;;;;;;5.20;3.63;;;;;;;13.18;74.32;101824.44;4952812;28;20023;-90
2023/01/22 02:51:50;;;;;;;5.93;3.95;;;;;;;13.00;74.33;101798.91;4938430;28;20034;-89
2023/01/22 02:54:18;;;;;;;5.40;3.58;;;;;;;12.84;74.20;101767.31;4955320;28;20664;-89
2023/01/22 02:56:44;;;;;;;4.85;3.58;;;;;;;13.01;74.18;101794.56;4954816;28;20050;-89
2023/01/22 02:59:10;;;;;;;5.10;3.38;;;;;;;13.01;74.20;101786.69;4955684;28;20030;-89
2023/01/22 03:01:35;;;;;;;5.00;3.42;;;;;;;12.88;74.21;101771.06;4954940;28;20524;-89
2023/01/22 03:04:16;;;;;;;4.57;3.10;;;;;;;13.18;74.03;101817.47;4938849;28;20027;-89
2023/01/22 03:06:43;;;;;;;4.28;3.17;;;;;;;12.69;74.25;101733.22;4962870;28;20065;-89
2023/01/22 03:09:11;;;;;;;4.95;3.40;;;;;;;13.15;74.42;101813.78;4955126;28;20117;-89
2023/01/22 03:11:39;;;;;;;5.57;3.88;;;;;;;13.06;74.22;101801.00;4939059;28;20456;-90
2023/01/22 03:22:20;;;;;;;4.38;3.20;;;;;;;13.06;73.99;101780.03;4956348;28;20555;-90
2023/01/22 03:24:52;;;;;;;5.32;3.15;;;;;;;13.15;74.14;101795.41;4953822;28;20030;-88
2023/01/22 03:27:23;;;;;;;5.05;3.45;;;;;;;13.12;74.47;101800.47;4963177;28;20528;-88
2023/01/22 03:29:49;;;;;;;5.18;3.17;;;;;;;13.12;74.17;101797.84;4942794;28;20122;-89
2023/01/22 03:32:14;;;;;;;5.00;3.28;;;;;;;13.03;74.29;101787.69;4970427;28;20107;-87
2023/01/22 03:34:40;;;;;;;4.47;3.55;;;;;;;13.09;74.16;101795.94;4954012;28;20125;-87
2023/01/22 03:37:07;;;;;;;4.50;3.60;;;;;;;12.97;74.15;101784.69;4953221;28;20031;-88
2023/01/22 03:39:32;;;;;;;4.85;3.30;;;;;;;12.73;74.38;101753.56;4938639;28;20600;-87
2023/01/22 03:41:58;;;;;;;5.38;3.42;;;;;;;13.11;74.21;101811.78;4953701;28;20105;-87
2023/01/22 03:44:24;;;;;;;4.43;3.42;;;;;;;13.18;73.98;101820.09;4954070;28;20037;-87
2023/01/22 03:46:49;;;;;;;5.55;3.42;;;;;;;12.94;74.02;101782.81;4971102;28;20065;-88
2023/01/22 03:49:16;;;;;;;6.45;3.75;;;;;;;13.15;73.48;101819.91;4954091;28;20472;-87
2023/01/22 03:51:44;;;;;;;5.05;3.50;;;;;;;12.98;74.21;101786.53;4971325;28;20573;-88
2023/01/22 03:54:14;;;;;;;6.32;3.60;;;;;;;13.17;74.06;101817.41;4956467;28;20042;-88
2023/01/22 03:56:40;;;;;;;4.55;3.13;;;;;;;12.96;74.28;101786.44;4963655;28;20031;-89
2023/01/22 03:59:07;;;;;;;;;;;;;;;13.12;74.22;101825.00;4958494;28;20027;-88
2023/01/22 04:01:34;;;;;;;5.30;3.40;;;;;;;12.92;74.06;101788.78;4950698;28;19930;-88
2023/01/22 04:03:59;;;;;;;5.47;3.15;;;;;;;13.13;74.10;101818.03;4956838;28;20065;-88
2023/01/22 04:06:26;;;;;;;4.68;3.33;;;;;;;13.11;74.15;101815.28;4946344;28;20489;-88
2023/01/22 04:08:55;;;;;;;;;;;;;;;13.10;74.40;101813.50;4958264;28;20035;-89
2023/01/22 04:11:23;;;;;;;5.30;3.20;;;;;;;12.78;74.05;101762.63;4957541;28;20053;-89
2023/01/22 04:13:50;;;;;;;5.07;3.17;;;;;;;12.99;74.24;101804.94;4956793;28;20050;-89
2023/01/22 04:16:15;;;;;;;5.28;3.15;;;;;;;12.63;74.00;101753.81;4957123;28;20058;-89
2023/01/22 04:18:41;;;;;;;5.57;3.40;;;;;;;12.99;74.17;101809.31;4955911;28;20038;-90
2023/01/22 04:21:07;;;;;;;4.85;3.13;;;;;;;13.06;74.20;101821.06;4957109;28;20121;-88
2023/01/22 04:23:33;;;;;;;5.13;3.42;;;;;;;13.15;73.82;101835.66;4957119;28;20058;-88
2023/01/22 04:25:59;;;;;;;6.00;3.58;;;;;;;12.84;73.80;101789.19;4956888;28;20554;-87
2023/01/22 04:28:25;;;;;;;5.20;3.55;;;;;;;12.99;74.06;101825.03;4957926;28;20173;-88
2023/01/22 04:30:53;;;;;;;4.68;3.10;;;;;;;12.95;73.75;101813.47;4972087;28;20061;-88
2023/01/22 04:33:21;;;;;;;4.13;3.10;;;;;;;12.83;73.68;101794.38;4959825;28;20038;-88
2023/01/22 04:35:52;;;;;;;3.90;2.85;;;;;;;13.16;74.17;101847.94;4947382;28;20031;-88
2023/01/22 04:38:17;;;;;;;4.78;3.17;;;;;;;12.98;73.89;101823.25;4973678;28;20034;-90
2023/01/22 04:40:44;;;;;;;4.47;3.05;;;;;;;12.94;73.99;101818.63;4957396;28;20039;-89
2023/01/22 04:43:10;;;;;;;4.07;3.10;;;;;;;12.94;73.82;101816.91;4934348;29;20170;-89
2023/01/22 04:45:36;;;;;;;5.07;3.38;;;;;;;13.04;73.74;101835.00;4956931;28;20071;-90
2023/01/22 04:48:01;;;;;;;5.70;3.22;;;;;;;12.80;73.84;101799.41;4953465;28;20586;-90
2023/01/22 04:50:39;;;;;;;4.40;3.22;;;;;;;13.10;73.81;101859.78;4971820;28;20035;-87
2023/01/22 04:53:05;;;;;;;4.60;3.00;;;;;;;13.10;73.98;101859.78;4952662;28;20041;-88
2023/01/22 04:55:30;;;;;;;4.53;3.30;;;;;;;12.82;73.98;101808.28;4955688;28;20031;-88
2023/01/22 04:57:57;;;;;;;4.20;3.17;;;;;;;12.92;73.81;101826.38;4939863;28;20452;-88
2023/01/22 05:00:24;;;;;;;5.18;2.92;;;;;;;13.04;73.45;101847.22;4949562;28;20023;-88
2023/01/22 05:02:49;;;;;;;5.28;3.05;;;;;;;13.13;73.77;101867.84;4946097;28;20038;-89
2023/01/22 05:05:15;;;;;;;4.45;3.10;;;;;;;13.17;73.54;101875.09;4949756;28;20039;-88
2023/01/22 05:07:41;;;;;;;4.25;3.22;;;;;;;13.07;73.97;101862.22;4962062;28;20081;-86
2023/01/22 05:10:07;;;;;;;4.03;2.97;;;;;;;12.84;73.78;101825.91;4951826;28;20117;-90
2023/01/22 05:12:33;;;;;;;4.55;3.10;;;;;;;13.05;73.78;101872.63;4972287;28;20030;-88
2023/01/22 05:15:10;;;;;;;3.15;2.47;;;;;;;12.83;73.76;101829.34;4963434;28;20043;-88
2023/01/22 05:17:36;;;;;;;4.60;3.20;;;;;;;12.67;73.91;101804.72;4953773;28;20118;-89
2023/01/22 05:20:03;;;;;;;5.65;3.28;;;;;;;12.75;73.83;101806.09;4962590;28;20504;-88
2023/01/22 05:22:28;;;;;;;3.42;3.10;;;;;;;12.87;73.91;101834.75;4963339;28;20066;-87
2023/01/22 05:24:54;;;;;;;4.60;3.05;;;;;;;12.73;73.56;101810.34;4968254;28;20027;-88
2023/01/22 05:27:20;;;;;;;4.93;3.17;;;;;;;12.78;73.51;101817.69;4961679;28;20042;-85
2023/01/22 05:29:45;;;;;;;5.65;3.38;;;;;;;13.07;73.62;101864.84;4967594;28;20031;-87
2023/01/22 05:32:12;;;;;;;4.07;2.95;;;;;;;13.00;73.86;101859.22;4968527;28;20034;-88
2023/01/22 05:34:38;;;;;;;5.90;3.25;;;;;;;13.10;73.64;101879.06;4965890;28;20031;-88
2023/01/22 05:37:03;;;;;;;3.83;2.67;;;;;;;13.03;73.44;101883.00;4952018;28;20556;-87
2023/01/22 05:39:29;;;;;;;4.82;2.97;;;;;;;12.90;73.80;101864.72;4951359;28;20143;-87
2023/01/22 05:41:55;;;;;;;5.15;2.95;;;;;;;12.80;73.81;101847.50;4952369;28;20070;-88
2023/01/22 05:44:20;;;;;;;4.70;2.92;;;;;;;12.98;73.77;101880.94;4947600;28;20031;-88
2023/01/22 05:46:47;;;;;;;4.32;2.50;;;;;;;12.81;73.43;101851.94;4948870;28;20035;-88
2023/01/22 05:49:12;;;;;;;3.78;2.90;;;;;;;13.03;73.61;101885.63;4952196;28;20038;-86
2023/01/22 05:51:38;;;;;;;3.30;2.80;;;;;;;12.83;73.65;101847.69;4960550;28;20449;-89
2023/01/22 05:54:04;;;;;;;4.10;3.15;;;;;;;12.74;73.88;101840.97;4951698;28;20031;-88
2023/01/22 05:56:30;;;;;;;4.88;3.20;;;;;;;13.01;73.42;101900.34;4968202;28;20034;-88
2023/01/22 05:58:56;;;;;;;3.78;2.90;;;;;;;13.12;73.67;101924.66;4952929;28;20027;-89
2023/01/22 06:01:23;;;;;;;5.35;2.60;;;;;;;13.13;73.81;101922.94;4951595;28;20034;-89
2023/01/22 06:03:49;;;;;;;3.83;2.95;;;;;;;13.03;73.64;101918.81;4966375;28;20027;-89
2023/01/22 06:06:14;;;;;;;3.95;2.60;;;;;;;12.78;73.64;101877.97;4936549;28;20132;-89
2023/01/22 06:08:41;;;;;;;3.55;2.67;;;;;;;12.83;73.62;101893.97;4965843;28;20027;-89
2023/01/22 06:11:10;;;;;;;4.35;2.72;;;;;;;12.95;73.46;101920.97;4952085;28;20030;-89
2023/01/22 06:13:37;;;;;;;4.00;2.90;;;;;;;13.16;73.59;101951.94;4950815;28;20049;-89
2023/01/22 06:16:04;;;;;;;4.68;2.70;;;;;;;13.09;73.79;101952.38;4951993;28;20098;-89
2023/01/22 06:18:30;;;;;;;3.38;2.70;;;;;;;13.06;73.65;101954.81;4968069;28;20042;-87
2023/01/22 06:21:04;;;;;;;3.53;2.63;;;;;;;12.97;73.75;101944.66;4952202;28;20110;-86
2023/01/22 06:23:30;;;;;;;4.38;3.10;;;;;;;13.06;73.54;101958.34;4947062;28;20421;-83
2023/01/22 06:25:57;;;;;;;4.93;2.80;;;;;;;12.66;73.58;101894.59;4967697;28;20035;-86
2023/01/22 06:28:23;;;;;;;4.18;2.75;;;;;;;13.03;73.55;101950.28;4949968;28;20034;-86
2023/01/22 06:30:50;;;;;;;;;;;;;;;13.11;73.54;101970.03;4967450;28;20126;-89
2023/01/22 06:33:15;;;;;;;4.40;2.80;;;;;;;12.91;73.73;101958.28;4951889;28;19914;-88
2023/01/22 06:35:41;;;;;;;3.45;2.60;;;;;;;12.55;73.70;101888.69;4952437;28;20027;-87
2023/01/22 06:38:07;;;;;;;4.13;2.72;;;;;;;12.96;73.54;101962.09;4961921;28;20089;-84
2023/01/22 06:40:33;;;;;;;4.05;2.80;;;;;;;12.96;73.54;101967.34;4956656;28;20439;-89
2023/01/22 06:43:03;;;;;;;4.68;2.97;;;;;;;13.02;73.78;101977.34;4960143;28;20023;-85
2023/01/22 06:45:28;;;;;;;4.50;2.85;;;;;;;12.86;73.79;101954.47;4947823;28;20545;-86
2023/01/22 06:48:00;;;;;;;3.63;2.83;;;;;;;12.96;73.79;101979.56;4954279;28;20501;-89
2023/01/22 06:50:26;;;;;;;4.30;2.80;;;;;;;12.77;73.57;101933.81;4952623;28;20039;-89
2023/01/22 06:52:51;;;;;;;3.35;2.60;;;;;;;12.78;73.54;101935.63;4951940;28;20042;-89
2023/01/22 06:55:18;;;;;;;4.07;2.67;;;;;;;12.96;73.81;101971.69;4950959;29;20421;-89
2023/01/22 06:57:44;;;;;;;4.32;3.05;;;;;;;12.69;73.41;101918.41;4953520;28;20034;-89
2023/01/22 07:00:10;;;;;;;4.03;2.92;;;;;;;12.75;73.63;101931.91;4942023;29;20031;-89
2023/01/22 07:02:35;;;;;;;3.42;2.80;;;;;;;12.90;73.64;101958.19;4947918;28;20039;-90
2023/01/22 07:05:02;;;;;;;3.85;3.13;;;;;;;12.99;73.70;101974.50;4939165;29;20030;-91
2023/01/22 07:07:27;;;;;;;3.47;2.78;;;;;;;12.81;73.64;101934.91;4951554;28;20030;-87
2023/01/22 07:09:54;;;;;;;6.15;2.80;;;;;;;12.73;73.36;101926.56;4947414;28;20031;-88
2023/01/22 07:12:20;;;;;;;5.00;3.05;;;;;;;12.82;73.59;101944.59;4947119;28;20134;-88
2023/01/22 07:14:45;;;;;;;4.18;3.00;;;;;;;12.81;73.49;101938.44;4957768;28;20146;-88
2023/01/22 07:17:12;;;;;;;4.28;3.15;;;;;;;13.12;73.60;102005.97;4930968;29;20032;-87
2023/01/22 07:19:38;;;;;;;4.93;2.78;;;;;;;12.96;73.52;101971.69;4945107;28;20036;-88
2023/01/22 07:22:03;;;;;;;3.63;2.80;;;;;;;12.99;73.68;101978.00;4924568;29;20110;-87
2023/01/22 07:24:29;;;;;;;4.85;3.05;;;;;;;12.85;73.44;101963.16;4941238;29;20114;-89
2023/01/22 07:26:57;;;;;;;4.72;2.90;;;;;;;13.10;73.74;102007.56;4943060;28;20027;-89
2023/01/22 07:29:25;;;;;;;4.78;2.70;;;;;;;13.00;73.66;101987.72;4949850;28;20035;-88
2023/01/22 07:31:54;;;;;;;4.68;3.08;;;;;;;12.88;73.51;101965.94;4938923;28;20035;-89
2023/01/22 07:34:23;;;;;;;4.38;2.83;;;;;;;13.15;73.32;102000.88;4929605;29;20094;-91
2023/01/22 07:36:50;;;;;;;3.75;2.75;;;;;;;13.09;73.53;102003.13;4952483;28;20110;-89
2023/01/22 07:39:17;;;;;;;5.10;3.30;;;;;;;12.52;73.54;101910.38;4921043;29;20072;-89
2023/01/22 07:41:43;;;;;;;4.97;3.28;;;;;;;12.57;73.46;101913.28;4939840;29;20521;-90
2023/01/22 07:44:11;;;;;;;4.57;2.95;;;;;;;12.78;73.48;101939.94;4935347;29;20032;-90
2023/01/22 07:46:41;;;;;;;3.45;2.72;;;;;;;12.56;73.37;101912.38;4939392;29;20172;-89
2023/01/22 07:49:09;;;;;;;5.05;3.10;;;;;;;12.75;73.42;101951.16;4953800;29;20477;-90
2023/01/22 07:51:37;;;;;;;4.47;3.00;;;;;;;12.77;73.57;101961.75;4950625;29;20031;-91
2023/01/22 07:54:03;;;;;;;4.13;2.75;;;;;;;12.69;73.46;101948.13;4932759;29;20086;-89
2023/01/22 07:56:36;;;;;;;5.20;2.80;;;;;;;13.09;73.40;102017.97;4960002;28;20429;-90
2023/01/22 07:59:08;;;;;;;3.85;2.78;;;;;;;13.03;73.48;102001.00;4934325;29;20031;-89
2023/01/22 08:01:33;;;;;;;5.75;3.17;;;;;;;12.95;73.43;101993.47;4938075;29;20023;-90
2023/01/22 08:04:01;;;;;;;3.78;2.83;;;;;;;13.03;73.50;102007.97;4949633;28;20493;-91
2023/01/22 08:06:28;;;;;;;4.70;3.10;;;;;;;12.87;73.65;101987.75;4921505;29;20035;-89
2023/01/22 08:09:06;;;;;;;4.43;3.30;;;;;;;13.07;73.64;102028.34;4948616;28;20525;-90
2023/01/22 08:11:32;;;;;;;4.53;2.80;;;;;;;12.86;73.52;102001.66;4938649;29;20441;-90
2023/01/22 08:13:58;;;;;;;4.60;2.67;;;;;;;12.90;73.64;102008.91;4960131;28;20051;-89
2023/01/22 08:16:23;;;;;;;4.93;2.80;;;;;;;13.02;73.81;102022.81;4933485;29;20424;-89
2023/01/22 08:18:49;;;;;;;3.58;2.80;;;;;;;12.72;73.57;101963.16;4953256;28;20042;-88
2023/01/22 08:21:15;;;;;;;4.05;2.60;;;;;;;12.98;73.68;102015.56;4950400;28;20474;-89
2023/01/22 08:23:41;;;;;;;4.32;2.65;;;;;;;12.78;73.51;101976.66;4951311;28;20467;-88
2023/01/22 08:26:07;;;;;;;3.78;2.72;;;;;;;12.95;73.41;102006.56;4952476;28;20063;-88
2023/01/22 08:28:32;;;;;;;4.63;3.00;;;;;;;12.75;73.13;101976.47;4952844;28;20151;-88
2023/01/22 08:31:00;;;;;;;4.30;2.88;;;;;;;12.80;73.23;101991.66;4954337;28;20038;-87
2023/01/22 08:33:31;;;;;;;3.88;2.67;;;;;;;13.09;73.40;102042.47;4954047;28;20031;-89
2023/01/22 08:35:56;;;;;;;4.90;2.88;;;;;;;12.79;73.22;101994.22;4934669;29;20027;-89
2023/01/22 08:38:22;;;;;;;3.95;2.85;;;;;;;13.06;73.04;102044.91;4963525;28;20043;-89
2023/01/22 08:40:49;;;;;;;3.70;3.05;;;;;;;12.78;73.42;102006.41;4951364;28;20587;-88
2023/01/22 08:43:15;;;;;;;3.83;2.95;;;;;;;13.12;72.96;102066.28;4951462;28;20046;-89
2023/01/22 08:45:40;;;;;;;4.10;2.85;;;;;;;13.04;73.18;102054.38;4969567;28;20465;-89
2023/01/22 08:48:06;;;;;;;4.97;3.00;;;;;;;12.73;73.20;101996.44;4969921;28;20039;-88
2023/01/22 08:50:32;;;;;;;4.72;2.78;;;;;;;12.74;72.86;102009.63;4954155;28;20478;-88
2023/01/22 08:52:58;;;;;;;3.50;2.67;;;;;;;12.81;73.00;102017.09;4976465;28;20062;-87
2023/01/22 08:55:24;;;;;;;3.78;2.47;;;;;;;12.86;73.16;102014.75;4940421;28;20074;-88
2023/01/22 08:57:54;;;;;;;4.18;2.83;;;;;;;12.87;72.53;102013.03;4945730;28;20043;-88
2023/01/22 09:00:22;;;;;;;5.10;2.55;;;;;;;13.11;72.98;102061.81;4952217;28;20552;-89
2023/01/22 09:02:48;;;;;;;3.88;2.72;;;;;;;13.02;72.81;102035.91;4949520;28;20034;-88
2023/01/22 09:05:16;;;;;;;4.97;3.05;;;;;;;12.74;73.06;101991.28;4951777;28;20552;-86
2023/01/22 09:07:42;;;;;;;3.92;2.75;;;;;;;12.75;72.88;101989.56;4948041;28;20042;-90
2023/01/22 09:10:15;;;;;;;3.80;2.63;;;;;;;13.06;72.87;102047.53;4936715;28;20027;-90
2023/01/22 09:12:46;;;;;;;3.83;2.65;;;;;;;12.92;72.61;102015.16;4966194;28;20042;-90
2023/01/22 09:15:12;;;;;;;4.00;2.72;;;;;;;13.13;72.77;102049.72;4954122;28;20481;-89
2023/01/22 09:17:39;;;;;;;5.45;3.03;;;;;;;12.96;72.61;102016.28;4954298;28;20031;-91
2023/01/22 09:20:07;;;;;;;4.35;2.72;;;;;;;13.01;72.63;102020.06;4938401;28;20039;-89
2023/01/22 09:22:33;;;;;;;4.22;2.70;;;;;;;12.91;72.97;102022.91;4950312;28;20409;-88
2023/01/22 09:25:00;;;;;;;2.88;2.40;;;;;;;12.80;72.75;101990.75;4936751;28;20030;-90
2023/01/22 09:27:33;;;;;;;4.07;2.65;;;;;;;13.12;72.60;102041.75;4952484;28;20034;-89
2023/01/22 09:30:00;;;;;;;3.83;2.80;;;;;;;12.89;72.79;102000.94;4951894;28;20034;-90
2023/01/22 09:32:26;;;;;;;4.85;2.90;;;;;;;13.03;72.67;102015.84;4969882;28;20101;-88
2023/01/22 09:34:52;;;;;;;2.80;2.35;;;;;;;12.73;72.26;101975.47;4951696;28;20035;-88
2023/01/22 09:37:18;;;;;;;4.55;2.80;;;;;;;13.02;72.51;102019.28;4952391;28;20025;-88
2023/01/22 09:39:43;;;;;;;2.97;2.67;;;;;;;12.75;72.35;101977.38;4950863;28;20521;-88
2023/01/22 09:42:36;;;;;;;4.18;2.75;;;;;;;12.91;72.34;102012.41;4949463;28;20118;-88
2023/01/22 09:45:11;;;;;;;4.45;3.05;;;;;;;13.08;72.52;102026.63;4954062;28;20082;-89
2023/01/22 09:47:44;;;;;;;4.13;2.47;;;;;;;12.78;72.86;101976.66;4939843;28;20031;-90
2023/01/22 09:50:22;;;;;;;3.45;2.90;;;;;;;13.15;72.69;102037.63;4944761;28;20038;-88
2023/01/22 09:52:50;;;;;;;3.40;2.60;;;;;;;13.08;72.69;102030.16;4953290;28;20457;-89
2023/01/22 09:55:18;;;;;;;5.20;2.65;;;;;;;13.18;72.45;102036.91;4953012;28;20042;-90
2023/01/22 09:57:49;;;;;;;3.70;2.58;;;;;;;13.23;72.81;102035.50;4936168;29;20031;-88
2023/01/22 10:00:23;;;;;;;3.83;2.78;;;;;;;13.22;72.66;102038.91;4949863;28;20520;-87
2023/01/22 10:03:17;;;;;;;3.67;2.65;;;;;;;13.12;72.72;102041.75;4952768;29;20027;-87
2023/01/22 10:06:30;;;;;;;5.00;2.80;;;;;;;13.12;72.97;102037.44;4969869;28;20086;-89
2023/01/22 10:10:04;;;;;;;33.08;4.80;;;;;;;13.17;74.39;102024.59;4947772;28;20039;-88
2023/01/22 10:13:27;;;;;;;37.65;5.30;;;;;;;12.71;74.66;101946.53;4940037;28;20036;-90
2023/01/22 10:15:55;;;;;;;32.05;4.85;;;;;;;13.14;74.15;102009.56;4947652;28;20049;-89
2023/01/22 10:18:45;;;;;;;27.45;4.50;;;;;;;13.21;73.99;102018.75;4952785;28;20039;-88
2023/01/22 10:21:20;;;;;;;25.77;4.50;;;;;;;13.10;74.28;102009.25;4951052;28;20493;-89
2023/01/22 10:23:48;;;;;;;25.65;4.70;;;;;;;13.02;74.00;101979.94;4936221;28;21305;-88
2023/01/22 10:26:37;;;;;;;17.13;4.60;;;;;;;13.23;74.11;102017.13;4980310;28;20098;-91
2023/01/22 10:29:05;;;;;;;28.70;5.90;;;;;;;13.11;74.21;101992.75;4967460;28;20031;-87
2023/01/22 10:31:38;;;;;;;21.35;4.70;;;;;;;13.24;73.58;102011.94;4971696;28;20412;-89
2023/01/22 10:34:13;;;;;;;28.25;4.97;;;;;;;13.05;73.02;101993.25;4956552;28;20101;-86
2023/01/22 10:36:39;;;;;;;20.15;4.63;;;;;;;13.23;72.54;102019.75;4969503;28;20026;-88
2023/01/22 10:39:13;;;;;;;27.95;4.35;;;;;;;13.15;73.12;102000.88;4952805;28;20073;-88
2023/01/22 10:41:40;;;;;;;22.65;4.25;;;;;;;12.82;72.74;101937.63;4938997;28;20415;-89
2023/01/22 10:44:17;;;;;;;20.92;5.28;;;;;;;13.29;73.13;102011.38;4967500;28;20056;-89
2023/01/22 10:46:42;;;;;;;15.48;3.88;;;;;;;13.24;72.77;102011.94;4939095;28;20030;-87
2023/01/22 10:49:21;;;;;;;11.82;4.13;;;;;;;13.24;72.88;102005.81;4937938;28;20101;-88
2023/01/22 10:51:56;;;;;;;11.85;4.43;;;;;;;13.23;72.57;101996.13;4964026;28;20523;-87
2023/01/22 10:54:34;;;;;;;14.52;3.67;;;;;;;13.12;72.43;101981.41;4954485;28;20123;-88
2023/01/22 10:57:20;;;;;;;15.07;3.75;;;;;;;13.13;72.59;101968.41;4952954;28;20033;-88
2023/01/22 10:59:51;;;;;;;13.77;4.18;;;;;;;13.21;72.48;101987.28;4970680;28;20034;-89
2023/01/22 11:02:22;;;;;;;13.05;3.90;;;;;;;13.11;72.58;101979.63;4957154;28;20062;-86
2023/01/22 11:04:48;;;;;;;13.23;3.47;;;;;;;13.22;72.51;102008.31;4959847;28;20037;-89
2023/01/22 11:07:29;;;;;;;11.07;3.85;;;;;;;13.28;72.39;101999.94;4955689;28;20030;-90
2023/01/22 11:10:21;;;;;;;8.38;3.75;;;;;;;13.23;72.65;102001.38;4946223;28;20050;-90
2023/01/22 11:12:54;;;;;;;11.50;4.07;;;;;;;13.19;72.52;101981.91;4950660;28;20034;-87
2023/01/22 11:15:37;;;;;;;13.63;4.03;;;;;;;13.29;72.00;102001.78;4970258;28;20171;-88
2023/01/22 11:18:03;;;;;;;10.23;3.45;;;;;;;13.24;72.33;101993.59;4954501;28;20540;-86
2023/01/22 11:20:43;;;;;;;7.18;3.60;;;;;;;13.18;72.37;101990.56;4953712;28;20038;-88
2023/01/22 11:23:09;;;;;;;8.93;3.65;;;;;;;13.29;72.17;102011.38;4961299;28;20053;-87
2023/01/22 11:25:44;;;;;;;9.98;3.53;;;;;;;13.23;72.14;101993.50;4974020;28;20473;-88
2023/01/22 11:28:26;;;;;;;8.48;3.60;;;;;;;13.03;72.26;101958.16;4951298;28;20031;-88
2023/01/22 11:31:02;;;;;;;10.07;3.38;;;;;;;13.12;72.24;101970.94;4970656;28;20042;-88
2023/01/22 11:33:53;;;;;;;6.75;3.10;;;;;;;13.31;72.44;102002.78;4953819;28;20038;-88
2023/01/22 11:36:53;;;;;;;10.93;3.72;;;;;;;13.24;72.30;102011.94;4971619;28;20500;-87
2023/01/22 11:39:40;;;;;;;6.35;3.10;;;;;;;13.29;71.98;102001.78;4970475;28;20043;-87
2023/01/22 11:42:24;;;;;;;7.93;3.40;;;;;;;13.14;72.11;101982.44;4971060;28;20058;-88
2023/01/22 11:44:54;;;;;;;5.80;3.03;;;;;;;13.26;72.30;102005.91;4945562;28;20043;-87